createdAt,value
2022-11-12T00:01:46.031Z,1.20
2022-11-12T00:04:14.299Z,1.27
2022-11-12T00:06:43.719Z,0.90
2022-11-12T00:09:12.523Z,1.10
2022-11-12T00:11:40.850Z,1.53
2022-11-12T00:14:10.583Z,1.13
2022-11-12T00:16:43.006Z,1.13
2022-11-12T00:19:11.629Z,1.40
2022-11-12T00:21:40.352Z,1.00
2022-11-12T00:24:08.994Z,0.87
2022-11-12T00:26:37.862Z,1.00
2022-11-12T00:29:06.161Z,1.07
2022-11-12T00:31:34.655Z,1.30
2022-11-12T00:34:04.461Z,1.70
2022-11-12T00:36:32.514Z,1.20
2022-11-12T00:39:00.582Z,1.67
2022-11-12T00:41:28.666Z,1.20
2022-11-12T00:43:56.808Z,0.90
2022-11-12T00:46:25.334Z,0.73
2022-11-12T00:48:53.613Z,1.50
2022-11-12T00:51:23.069Z,1.27
2022-11-12T00:53:51.618Z,1.00
2022-11-12T00:56:19.718Z,1.40
2022-11-12T00:58:47.785Z,1.10
2022-11-12T01:01:17.309Z,1.30
2022-11-12T01:03:46.782Z,1.20
2022-11-12T01:06:17.183Z,1.50
2022-11-12T01:08:48.285Z,1.10
2022-11-12T01:11:18.290Z,1.10
2022-11-12T01:13:48.662Z,1.13
2022-11-12T01:16:19.912Z,0.80
2022-11-12T01:18:49.100Z,1.30
2022-11-12T01:21:17.204Z,0.73
2022-11-12T01:23:46.788Z,0.90
2022-11-12T01:26:17.103Z,1.20
2022-11-12T01:28:45.270Z,1.60
2022-11-12T01:31:15.598Z,1.10
2022-11-12T01:33:44.595Z,0.80
2022-11-12T01:36:13.291Z,0.80
2022-11-12T01:38:42.946Z,0.80
2022-11-12T01:41:15.759Z,0.90
2022-11-12T01:43:43.976Z,1.00
2022-11-12T01:46:18.381Z,0.97
2022-11-12T01:48:50.158Z,1.03
2022-11-12T01:51:18.429Z,1.27
2022-11-12T01:53:49.356Z,0.73
2022-11-12T01:56:19.703Z,0.90
2022-11-12T01:58:48.623Z,0.70
2022-11-12T02:01:16.756Z,0.70
2022-11-12T02:03:44.935Z,0.70
2022-11-12T02:06:15.186Z,0.80
2022-11-12T02:08:43.593Z,0.70
2022-11-12T02:11:14.337Z,0.70
2022-11-12T02:14:00.879Z,0.80
2022-11-12T02:16:32.474Z,0.77
2022-11-12T02:19:00.845Z,0.70
2022-11-12T02:21:30.551Z,0.80
2022-11-12T02:23:59.912Z,0.70
2022-11-12T02:26:32.155Z,1.10
2022-11-12T02:29:00.379Z,1.00
2022-11-12T02:31:28.529Z,0.90
2022-11-12T02:33:56.620Z,1.10
2022-11-12T02:36:24.798Z,1.80
2022-11-12T02:38:54.508Z,1.30
2022-11-12T02:41:22.803Z,1.70
2022-11-12T02:43:51.121Z,1.77
2022-11-12T02:46:19.403Z,1.60
2022-11-12T02:48:47.731Z,1.60
2022-11-12T02:51:15.806Z,1.13
2022-11-12T02:53:43.826Z,0.90
2022-11-12T02:56:13.327Z,1.20
2022-11-12T02:58:41.359Z,0.77
2022-11-12T03:01:09.597Z,1.20
2022-11-12T03:03:37.677Z,0.90
2022-11-12T03:06:06.423Z,1.30
2022-11-12T03:08:34.587Z,1.80
2022-11-12T03:11:07.935Z,1.70
2022-11-12T03:13:37.697Z,2.00
2022-11-12T03:16:06.238Z,1.77
2022-11-12T03:18:34.538Z,1.80
2022-11-12T03:21:02.719Z,1.40
2022-11-12T03:23:30.954Z,2.10
2022-11-12T03:25:59.915Z,1.40
2022-11-12T03:28:28.177Z,1.70
2022-11-12T03:31:00.884Z,1.60
2022-11-12T03:33:28.942Z,3.00
2022-11-12T03:35:57.127Z,2.13
2022-11-12T03:38:25.435Z,2.40
2022-11-12T03:40:53.683Z,2.37
2022-11-12T03:43:21.792Z,2.90
2022-11-12T03:45:49.874Z,3.57
2022-11-12T03:48:19.339Z,3.67
2022-11-12T03:50:47.354Z,3.50
2022-11-12T03:53:15.347Z,2.03
2022-11-12T03:55:43.375Z,2.20
2022-11-12T03:58:11.546Z,2.30
2022-11-12T04:00:39.616Z,1.87
2022-11-12T04:03:07.796Z,2.00
2022-11-12T04:05:54.490Z,1.00
2022-11-12T04:08:39.458Z,1.90
2022-11-12T04:11:12.558Z,0.83
2022-11-12T04:13:42.132Z,0.80
2022-11-12T04:16:29.721Z,1.10
2022-11-12T04:19:17.152Z,0.70
2022-11-12T04:21:54.949Z,0.90
2022-11-12T04:24:45.689Z,0.80
2022-11-12T04:27:16.143Z,0.70
2022-11-12T04:30:02.119Z,0.70
2022-11-12T04:32:30.910Z,0.97
2022-11-12T04:34:59.296Z,2.23
2022-11-12T04:37:30.246Z,1.70
2022-11-12T04:40:19.260Z,3.33
2022-11-12T04:43:06.718Z,2.23
2022-11-12T04:45:35.184Z,2.80
2022-11-12T04:48:03.545Z,2.90
2022-11-12T04:50:31.936Z,2.13
2022-11-12T04:53:01.442Z,2.27
2022-11-12T04:55:29.496Z,2.03
2022-11-12T04:58:00.636Z,2.40
2022-11-12T05:00:29.295Z,1.23
2022-11-12T05:02:57.481Z,1.37
2022-11-12T05:05:29.784Z,0.87
2022-11-12T05:08:03.238Z,1.00
2022-11-12T05:10:31.902Z,1.33
2022-11-12T05:12:59.946Z,1.03
2022-11-12T05:15:28.055Z,1.67
2022-11-12T05:17:56.255Z,3.20
2022-11-12T05:20:24.350Z,4.50
2022-11-12T05:23:05.597Z,4.87
2022-11-12T05:25:36.284Z,4.00
2022-11-12T05:28:06.683Z,2.37
2022-11-12T05:30:35.410Z,2.10
2022-11-12T05:33:03.410Z,1.67
2022-11-12T05:35:31.410Z,1.77
2022-11-12T05:37:59.482Z,1.30
2022-11-12T05:40:27.568Z,1.23
2022-11-12T05:42:57.101Z,1.03
2022-11-12T05:45:25.135Z,1.30
2022-11-12T05:47:53.170Z,1.37
2022-11-12T05:50:21.174Z,1.70
2022-11-12T05:52:49.448Z,2.27
2022-11-12T05:55:17.492Z,1.63
2022-11-12T05:57:45.486Z,1.60
2022-11-12T06:00:15.880Z,1.57
2022-11-12T06:02:44.688Z,1.73
2022-11-12T06:05:13.439Z,3.23
2022-11-12T06:07:41.450Z,2.83
2022-11-12T06:10:10.061Z,3.00
2022-11-12T06:12:38.098Z,4.70
2022-11-12T06:15:07.408Z,6.00
2022-11-12T06:17:36.889Z,4.33
2022-11-12T06:20:05.485Z,2.80
2022-11-12T06:22:33.672Z,2.00
2022-11-12T06:25:01.790Z,2.10
2022-11-12T06:27:29.826Z,2.97
2022-11-12T06:29:57.843Z,2.40
2022-11-12T06:32:26.097Z,2.03
2022-11-12T06:34:55.539Z,1.47
2022-11-12T06:37:23.935Z,1.50
2022-11-12T06:39:52.282Z,1.23
2022-11-12T06:42:20.409Z,1.20
2022-11-12T06:44:48.444Z,1.83
2022-11-12T06:47:16.488Z,1.17
2022-11-12T06:49:44.582Z,1.43
2022-11-12T06:52:16.720Z,2.80
2022-11-12T06:54:45.670Z,4.80
2022-11-12T06:57:13.715Z,6.33
2022-11-12T06:59:41.872Z,3.93
2022-11-12T07:02:13.353Z,3.23
2022-11-12T07:04:41.867Z,3.30
2022-11-12T07:07:11.050Z,13.07
2022-11-12T07:09:40.648Z,5.67
2022-11-12T07:12:08.953Z,10.23
2022-11-12T07:14:36.992Z,4.57
2022-11-12T07:17:05.910Z,4.40
2022-11-12T07:19:35.517Z,4.50
2022-11-12T07:22:07.981Z,3.87
2022-11-12T07:24:37.339Z,3.93
2022-11-12T07:27:07.799Z,2.40
2022-11-12T07:29:47.416Z,2.80
2022-11-12T07:32:19.120Z,2.83
2022-11-12T07:34:47.777Z,3.57
2022-11-12T07:37:23.500Z,4.63
2022-11-12T07:39:53.426Z,4.90
2022-11-12T07:42:22.840Z,5.20
2022-11-12T07:44:50.890Z,6.20
2022-11-12T07:47:18.996Z,6.80
2022-11-12T07:49:47.282Z,40.03
2022-11-12T07:52:15.603Z,20.30
2022-11-12T07:54:44.013Z,30.57
2022-11-12T07:57:12.233Z,31.10
2022-11-12T07:59:45.883Z,15.87
2022-11-12T08:02:14.566Z,9.10
2022-11-12T08:04:43.371Z,9.87
2022-11-12T08:07:13.014Z,11.20
2022-11-12T08:09:43.012Z,10.50
2022-11-12T08:12:11.223Z,9.67
2022-11-12T08:14:40.080Z,9.63
2022-11-12T08:17:09.899Z,9.90
2022-11-12T08:19:38.562Z,9.37
2022-11-12T08:22:06.803Z,10.73
2022-11-12T08:24:35.745Z,7.03
2022-11-12T08:27:04.086Z,7.30
2022-11-12T08:29:32.462Z,7.20
2022-11-12T08:32:00.705Z,8.70
2022-11-12T08:34:30.434Z,8.20
2022-11-12T08:36:59.122Z,6.50
2022-11-12T08:39:27.324Z,2.33
2022-11-12T08:41:55.410Z,7.37
2022-11-12T08:44:23.468Z,16.33
2022-11-12T08:46:51.840Z,7.70
2022-11-12T08:49:19.977Z,4.23
2022-11-12T08:52:10.380Z,4.03
2022-11-12T08:54:49.900Z,3.33
2022-11-12T08:57:25.387Z,2.90
2022-11-12T09:00:12.386Z,3.03
2022-11-12T09:02:58.913Z,2.40
2022-11-12T09:05:45.057Z,3.90
2022-11-12T09:08:37.842Z,3.03
2022-11-12T09:11:23.060Z,4.00
2022-11-12T09:13:54.995Z,4.13
2022-11-12T09:16:24.266Z,4.97
2022-11-12T09:18:53.374Z,2.77
2022-11-12T09:21:24.852Z,2.70
2022-11-12T09:23:55.681Z,4.97
2022-11-12T09:26:25.136Z,4.90
2022-11-12T09:28:54.964Z,6.43
2022-11-12T09:31:25.688Z,5.20
2022-11-12T09:33:53.853Z,4.03
2022-11-12T09:36:22.289Z,3.20
2022-11-12T09:38:50.373Z,3.40
2022-11-12T09:41:27.610Z,1.93
2022-11-12T09:43:58.520Z,2.00
2022-11-12T09:46:31.225Z,2.20
2022-11-12T09:49:04.157Z,2.80
2022-11-12T09:51:35.487Z,2.70
2022-11-12T09:54:07.479Z,4.80
2022-11-12T09:56:37.755Z,4.70
2022-11-12T09:59:11.751Z,5.30
2022-11-12T10:01:46.267Z,6.20
2022-11-12T10:04:38.802Z,4.80
2022-11-12T10:07:14.287Z,4.57
2022-11-12T10:09:51.903Z,3.80
2022-11-12T10:12:35.529Z,2.87
2022-11-12T10:15:52.130Z,3.47
2022-11-12T10:18:33.986Z,2.60
2022-11-12T10:21:09.231Z,2.87
2022-11-12T10:23:43.892Z,2.47
2022-11-12T10:26:14.757Z,2.37
2022-11-12T10:28:49.012Z,2.60
2022-11-12T10:31:20.121Z,3.53
2022-11-12T10:33:50.040Z,4.40
2022-11-12T10:36:28.810Z,5.03
2022-11-12T10:38:57.475Z,3.83
2022-11-12T10:41:27.612Z,4.50
2022-11-12T10:44:01.940Z,3.97
2022-11-12T10:46:31.722Z,2.80
2022-11-12T10:49:02.434Z,2.30
2022-11-12T10:51:35.468Z,2.40
2022-11-12T10:54:22.564Z,3.00
2022-11-12T10:56:55.445Z,2.93
2022-11-12T10:59:26.003Z,3.50
2022-11-12T11:01:58.488Z,3.00
2022-11-12T11:04:32.144Z,3.30
2022-11-12T11:07:02.247Z,2.80
2022-11-12T11:09:31.270Z,3.00
2022-11-12T11:12:00.600Z,3.30
2022-11-12T11:14:36.275Z,3.53
2022-11-12T11:17:09.612Z,3.70
2022-11-12T11:19:40.731Z,1.87
2022-11-12T11:22:33.789Z,2.93
2022-11-12T11:25:20.663Z,2.80
2022-11-12T11:28:01.470Z,2.50
2022-11-12T11:30:31.763Z,3.03
2022-11-12T11:33:23.541Z,2.00
2022-11-12T11:36:01.006Z,1.93
2022-11-12T11:38:39.175Z,2.10
2022-11-12T11:41:24.029Z,2.23
2022-11-12T11:44:00.970Z,2.90
2022-11-12T11:46:39.896Z,2.53
2022-11-12T11:49:21.814Z,2.10
2022-11-12T11:51:54.592Z,1.83
2022-11-12T11:54:46.449Z,2.20
2022-11-12T11:57:17.975Z,1.70
2022-11-12T12:00:05.598Z,1.73
2022-11-12T12:03:04.270Z,2.20
2022-11-12T12:05:42.510Z,2.07
2022-11-12T12:08:15.315Z,1.87
2022-11-12T12:11:07.718Z,2.67
2022-11-12T12:13:52.795Z,1.77
2022-11-12T12:16:41.798Z,1.93
2022-11-12T12:19:32.669Z,2.30
2022-11-12T12:22:03.195Z,2.00
2022-11-12T12:24:33.875Z,1.60
2022-11-12T12:27:05.634Z,1.70
2022-11-12T12:29:37.700Z,1.70
2022-11-12T12:32:11.434Z,1.30
2022-11-12T12:34:43.822Z,1.30
2022-11-12T12:37:16.406Z,2.13
2022-11-12T12:39:50.103Z,1.97
2022-11-12T12:42:22.765Z,23.63
2022-11-12T12:45:04.531Z,9.10
2022-11-12T12:47:38.771Z,2.90
2022-11-12T12:50:13.423Z,2.37
2022-11-12T12:53:00.423Z,2.97
2022-11-12T12:55:42.568Z,2.73
2022-11-12T12:58:25.414Z,2.23
2022-11-12T13:00:54.967Z,1.77
2022-11-12T13:03:59.857Z,2.03
2022-11-12T13:06:33.192Z,2.00
2022-11-12T13:09:05.743Z,2.63
2022-11-12T13:12:11.742Z,2.73
2022-11-12T13:14:54.491Z,2.60
2022-11-12T13:17:48.968Z,3.73
2022-11-12T13:20:33.397Z,6.00
2022-11-12T13:23:04.070Z,14.40
2022-11-12T13:25:33.753Z,11.03
2022-11-12T13:28:07.234Z,5.87
2022-11-12T13:31:03.414Z,4.03
2022-11-12T13:33:34.320Z,3.80
2022-11-12T13:36:28.299Z,4.00
2022-11-12T13:39:14.164Z,2.80
2022-11-12T13:41:59.995Z,2.47
2022-11-12T13:44:29.449Z,2.10
2022-11-12T13:46:58.475Z,2.10
2022-11-12T13:49:28.042Z,3.27
2022-11-12T13:51:56.776Z,4.00
2022-11-12T13:54:28.782Z,4.50
2022-11-12T13:56:56.930Z,5.00
2022-11-12T13:59:26.362Z,5.30
2022-11-12T14:01:55.387Z,3.30
2022-11-12T14:04:25.647Z,2.60
2022-11-12T14:06:56.148Z,3.13
2022-11-12T14:09:40.822Z,1.93
2022-11-12T14:12:20.079Z,1.87
2022-11-12T14:15:06.159Z,1.67
2022-11-12T14:17:40.182Z,2.27
2022-11-12T14:20:20.014Z,1.77
2022-11-12T14:22:48.274Z,1.50
2022-11-12T14:25:21.329Z,1.67
2022-11-12T14:27:53.064Z,1.50
2022-11-12T14:30:23.557Z,1.40
2022-11-12T14:32:53.891Z,1.70
2022-11-12T14:35:32.040Z,1.50
2022-11-12T14:38:05.347Z,2.10
2022-11-12T14:40:37.767Z,2.93
2022-11-12T14:43:06.318Z,2.33
2022-11-12T14:45:35.498Z,2.00
2022-11-12T14:48:04.491Z,2.50
2022-11-12T14:50:39.099Z,1.80
2022-11-12T14:53:14.159Z,1.57
2022-11-12T14:55:49.151Z,0.97
2022-11-12T14:58:19.358Z,2.20
2022-11-12T15:00:49.308Z,2.20
2022-11-12T15:03:20.998Z,2.00
2022-11-12T15:06:01.690Z,1.43
2022-11-12T15:08:33.046Z,1.40
2022-11-12T15:11:25.876Z,2.67
2022-11-12T15:13:56.748Z,5.00
2022-11-12T15:16:29.131Z,4.60
2022-11-12T15:19:06.608Z,1.40
2022-11-12T15:21:35.011Z,1.70
2022-11-12T15:24:08.302Z,1.20
2022-11-12T15:26:39.370Z,1.20
2022-11-12T15:29:16.475Z,1.50
2022-11-12T15:31:46.276Z,1.57
2022-11-12T15:34:30.466Z,1.23
2022-11-12T15:37:00.562Z,1.60
2022-11-12T15:39:30.158Z,2.50
2022-11-12T15:42:00.983Z,1.73
2022-11-12T15:44:34.610Z,3.33
2022-11-12T15:47:03.500Z,3.43
2022-11-12T15:49:31.842Z,2.53
2022-11-12T15:51:59.874Z,3.03
2022-11-12T15:54:28.172Z,2.20
2022-11-12T15:56:57.152Z,1.70
2022-11-12T15:59:26.598Z,1.50
2022-11-12T16:01:55.755Z,2.03
2022-11-12T16:04:26.025Z,2.60
2022-11-12T16:06:55.018Z,2.43
2022-11-12T16:09:24.537Z,2.30
2022-11-12T16:11:57.653Z,4.27
2022-11-12T16:14:28.870Z,6.20
2022-11-12T16:16:57.852Z,5.50
2022-11-12T16:19:26.452Z,4.20
2022-11-12T16:21:54.662Z,3.80
2022-11-12T16:24:22.665Z,3.80
2022-11-12T16:26:50.780Z,4.97
2022-11-12T16:29:18.864Z,5.80
2022-11-12T16:31:48.272Z,5.27
2022-11-12T16:34:16.765Z,5.20
2022-11-12T16:36:50.443Z,5.83
2022-11-12T16:39:19.766Z,6.50
2022-11-12T16:41:48.149Z,9.20
2022-11-12T16:44:16.810Z,11.87
2022-11-12T16:46:44.918Z,13.57
2022-11-12T16:49:15.568Z,14.13
2022-11-12T16:51:43.799Z,16.33
2022-11-12T16:54:12.151Z,18.03
2022-11-12T16:56:40.306Z,18.60
2022-11-12T16:59:08.290Z,18.03
2022-11-12T17:01:36.365Z,16.73
2022-11-12T17:04:04.485Z,15.80
2022-11-12T17:06:38.819Z,17.03
2022-11-12T17:09:07.382Z,16.20
2022-11-12T17:11:36.234Z,17.17
2022-11-12T17:14:04.851Z,15.67
2022-11-12T17:16:33.338Z,14.40
2022-11-12T17:19:02.622Z,12.70
2022-11-12T17:21:31.014Z,9.60
2022-11-12T17:24:06.724Z,10.00
2022-11-12T17:26:35.389Z,13.10
2022-11-12T17:29:08.093Z,9.40
2022-11-12T17:31:37.270Z,11.87
2022-11-12T17:34:06.485Z,13.40
2022-11-12T17:36:40.647Z,9.70
2022-11-12T17:39:14.136Z,10.23
2022-11-12T17:41:42.353Z,10.40
2022-11-12T17:44:15.745Z,12.57
2022-11-12T17:46:44.442Z,13.03
2022-11-12T17:49:12.837Z,8.27
2022-11-12T17:51:41.233Z,6.80
2022-11-12T17:54:09.470Z,6.30
2022-11-12T17:56:39.025Z,6.47
2022-11-12T17:59:07.168Z,6.60
2022-11-12T18:01:36.078Z,6.53
2022-11-12T18:04:04.307Z,4.30
2022-11-12T18:06:34.548Z,4.33
2022-11-12T18:09:04.669Z,8.23
2022-11-12T18:11:39.100Z,10.70
2022-11-12T18:14:09.750Z,22.03
2022-11-12T18:16:37.915Z,14.93
2022-11-12T18:19:06.204Z,12.57
2022-11-12T18:21:36.601Z,7.60
2022-11-12T18:24:05.379Z,7.00
2022-11-12T18:26:33.549Z,9.33
2022-11-12T18:29:03.898Z,8.17
2022-11-12T18:31:34.628Z,8.97
2022-11-12T18:34:09.086Z,7.30
2022-11-12T18:36:37.434Z,12.00
2022-11-12T18:39:06.317Z,23.97
2022-11-12T18:41:35.029Z,28.90
2022-11-12T18:44:03.197Z,25.47
2022-11-12T18:46:31.219Z,27.60
2022-11-12T18:49:00.741Z,29.80
2022-11-12T18:51:29.095Z,26.33
2022-11-12T18:53:57.055Z,19.30
2022-11-12T18:56:25.091Z,15.47
2022-11-12T18:58:53.176Z,8.57
2022-11-12T19:01:22.795Z,6.93
2022-11-12T19:03:54.727Z,6.40
2022-11-12T19:06:24.598Z,5.63
2022-11-12T19:08:52.730Z,6.30
2022-11-12T19:11:21.947Z,5.80
2022-11-12T19:13:52.066Z,6.77
2022-11-12T19:16:22.153Z,6.30
2022-11-12T19:18:52.189Z,5.97
2022-11-12T19:21:22.198Z,6.03
2022-11-12T19:23:54.477Z,5.50
2022-11-12T19:26:23.529Z,7.40
2022-11-12T19:28:55.413Z,8.07
2022-11-12T19:31:24.913Z,11.13
2022-11-12T19:33:53.114Z,7.87
2022-11-12T19:36:23.090Z,7.50
2022-11-12T19:38:57.308Z,7.23
2022-11-12T19:41:26.883Z,7.83
2022-11-12T19:43:55.889Z,7.33
2022-11-12T19:46:23.971Z,6.27
2022-11-12T19:48:52.057Z,6.90
2022-11-12T19:51:20.117Z,5.90
2022-11-12T19:53:49.049Z,5.80
2022-11-12T19:56:22.482Z,6.50
2022-11-12T19:58:55.168Z,6.17
2022-11-12T20:01:24.269Z,7.00
2022-11-12T20:03:52.590Z,7.57
2022-11-12T20:06:23.371Z,7.93
2022-11-12T20:08:51.498Z,8.63
2022-11-12T20:11:21.091Z,8.50
2022-11-12T20:13:49.959Z,9.83
2022-11-12T20:16:24.889Z,12.03
2022-11-12T20:18:54.640Z,11.80
2022-11-12T20:21:22.792Z,10.60
2022-11-12T20:23:50.769Z,7.30
2022-11-12T20:26:20.615Z,9.17
2022-11-12T20:28:48.770Z,11.27
2022-11-12T20:31:20.509Z,11.50
2022-11-12T20:33:50.691Z,14.77
2022-11-12T20:36:20.676Z,12.13
2022-11-12T20:38:50.306Z,9.50
2022-11-12T20:41:21.218Z,6.90
2022-11-12T20:43:49.563Z,3.60
2022-11-12T20:46:17.569Z,4.37
2022-11-12T20:48:45.915Z,5.00
2022-11-12T20:51:25.489Z,4.70
2022-11-12T20:53:59.298Z,4.40
2022-11-12T20:56:31.683Z,4.83
2022-11-12T20:59:00.245Z,3.20
2022-11-12T21:01:30.859Z,3.00
2022-11-12T21:03:59.771Z,4.07
2022-11-12T21:06:29.723Z,2.50
2022-11-12T21:08:59.872Z,2.43
2022-11-12T21:11:29.654Z,2.93
2022-11-12T21:13:57.753Z,2.80
2022-11-12T21:16:25.882Z,2.60
2022-11-12T21:18:53.975Z,2.93
2022-11-12T21:21:23.429Z,3.67
2022-11-12T21:23:54.762Z,4.30
2022-11-12T21:26:23.836Z,3.40
2022-11-12T21:28:55.880Z,6.97
2022-11-12T21:31:26.014Z,9.90
2022-11-12T21:33:56.137Z,8.60
2022-11-12T21:36:26.571Z,7.43
2022-11-12T21:38:56.262Z,6.73
2022-11-12T21:41:26.730Z,6.97
2022-11-12T21:43:57.246Z,11.50
2022-11-12T21:46:27.219Z,28.10
2022-11-12T21:48:56.483Z,24.87
2022-11-12T21:51:26.079Z,22.80
2022-11-12T21:53:56.611Z,16.10
2022-11-12T21:56:25.336Z,13.70
2022-11-12T21:58:54.338Z,10.40
2022-11-12T22:01:26.380Z,8.80
2022-11-12T22:03:56.804Z,7.57
2022-11-12T22:06:28.372Z,7.10
2022-11-12T22:08:57.769Z,10.37
2022-11-12T22:11:27.350Z,11.60
2022-11-12T22:13:56.009Z,11.13
2022-11-12T22:16:27.161Z,9.33
2022-11-12T22:18:56.906Z,9.30
2022-11-12T22:21:27.001Z,10.00
2022-11-12T22:23:55.748Z,6.50
2022-11-12T22:26:25.988Z,6.00
2022-11-12T22:28:55.315Z,8.70
2022-11-12T22:31:27.577Z,10.30
2022-11-12T22:33:57.296Z,12.43
2022-11-12T22:36:27.202Z,12.27
2022-11-12T22:38:56.706Z,8.00
2022-11-12T22:41:27.135Z,7.73
2022-11-12T22:43:57.191Z,6.40
2022-11-12T22:46:29.182Z,6.50
2022-11-12T22:48:57.827Z,4.87
2022-11-12T22:51:27.640Z,4.90
2022-11-12T22:53:57.454Z,4.60
2022-11-12T22:56:26.838Z,4.07
2022-11-12T22:58:56.392Z,4.00
2022-11-12T23:01:27.634Z,2.93
2022-11-12T23:03:58.277Z,2.60
2022-11-12T23:06:27.266Z,2.63
2022-11-12T23:08:57.231Z,2.43
2022-11-12T23:11:26.392Z,2.50
2022-11-12T23:13:55.746Z,2.53
2022-11-12T23:16:27.452Z,2.50
2022-11-12T23:18:56.377Z,2.37
2022-11-12T23:21:26.678Z,1.83
2022-11-12T23:23:55.131Z,2.73
2022-11-12T23:26:24.975Z,2.00
2022-11-12T23:28:53.965Z,2.20
2022-11-12T23:31:24.538Z,1.97
2022-11-12T23:33:55.901Z,2.17
2022-11-12T23:36:25.548Z,1.83
2022-11-12T23:38:55.014Z,2.03
2022-11-12T23:41:26.013Z,2.93
2022-11-12T23:43:55.211Z,3.80
2022-11-12T23:46:23.858Z,3.40
2022-11-12T23:48:53.989Z,2.97
2022-11-12T23:51:23.715Z,2.83
2022-11-12T23:53:52.163Z,2.97
2022-11-12T23:56:21.304Z,2.73
2022-11-12T23:58:50.373Z,2.87
